Togiak, Alaska
Current Conditions -  °F | °C
As of 7:16 AM on Thursday 18 Dec 2014 (Local Time) from PATG Reporting Station
Clear Clear  
Wind Chill: 19°   Ceiling: Unl
Heat Index: 28°   Visibility: 10mi
Dew Point: 25°   Wind: 10mph
Humidity: 86%   Direction: 10°N
Pressure: 29.4"   Gusts: NA
Location:  59.07°N, 160.39°W
Report Text: PATG 181616Z AUTO 01009KT 10SM CLR M02/M04 A2940 RMK AO1
Loading
Personal Weather Stations






























Interactive Weather Map New forecast layout! Learn more

10-Day Weather Forecast

Advertisements
Track Severe Weather on mobile